sensor_id;sensor_type;location;lat;lon;timestamp;temperature;humidity
72202;SHT30;60105;54.956;73.412;2022-09-25T00:01:23;17.48;61.07
72202;SHT30;60105;54.956;73.412;2022-09-25T00:03:50;17.43;61.67
72202;SHT30;60105;54.956;73.412;2022-09-25T00:06:21;17.39;62.40
72202;SHT30;60105;54.956;73.412;2022-09-25T00:08:48;17.34;61.91
72202;SHT30;60105;54.956;73.412;2022-09-25T00:11:29;17.36;62.41
72202;SHT30;60105;54.956;73.412;2022-09-25T00:13:57;17.32;61.91
72202;SHT30;60105;54.956;73.412;2022-09-25T00:16:33;17.29;62.68
72202;SHT30;60105;54.956;73.412;2022-09-25T00:19:00;17.24;62.89
72202;SHT30;60105;54.956;73.412;2022-09-25T00:21:45;17.25;61.71
72202;SHT30;60105;54.956;73.412;2022-09-25T00:24:16;17.12;61.65
72202;SHT30;60105;54.956;73.412;2022-09-25T00:26:42;17.12;61.73
72202;SHT30;60105;54.956;73.412;2022-09-25T00:29:14;17.15;61.39
72202;SHT30;60105;54.956;73.412;2022-09-25T00:31:40;17.12;61.47
72202;SHT30;60105;54.956;73.412;2022-09-25T00:34:11;17.10;61.96
72202;SHT30;60105;54.956;73.412;2022-09-25T00:36:38;17.06;62.30
72202;SHT30;60105;54.956;73.412;2022-09-25T00:39:11;17.07;62.29
72202;SHT30;60105;54.956;73.412;2022-09-25T00:41:38;17.06;62.05
72202;SHT30;60105;54.956;73.412;2022-09-25T00:47:40;17.10;62.55
72202;SHT30;60105;54.956;73.412;2022-09-25T00:50:49;17.11;62.09
72202;SHT30;60105;54.956;73.412;2022-09-25T00:53:24;17.07;61.81
72202;SHT30;60105;54.956;73.412;2022-09-25T00:55:53;17.06;61.02
72202;SHT30;60105;54.956;73.412;2022-09-25T00:58:22;17.06;60.59
72202;SHT30;60105;54.956;73.412;2022-09-25T01:00:59;17.11;60.27
72202;SHT30;60105;54.956;73.412;2022-09-25T01:03:25;17.18;60.13
72202;SHT30;60105;54.956;73.412;2022-09-25T01:05:53;17.21;60.25
72202;SHT30;60105;54.956;73.412;2022-09-25T01:08:22;17.21;60.11
72202;SHT30;60105;54.956;73.412;2022-09-25T01:10:49;17.21;60.14
72202;SHT30;60105;54.956;73.412;2022-09-25T01:13:16;17.24;60.24
72202;SHT30;60105;54.956;73.412;2022-09-25T01:15:52;17.22;60.42
72202;SHT30;60105;54.956;73.412;2022-09-25T01:18:51;17.18;60.28
72202;SHT30;60105;54.956;73.412;2022-09-25T01:21:41;17.19;60.43
72202;SHT30;60105;54.956;73.412;2022-09-25T01:27:24;17.15;60.82
72202;SHT30;60105;54.956;73.412;2022-09-25T01:36:02;17.11;61.23
72202;SHT30;60105;54.956;73.412;2022-09-25T01:44:02;17.14;60.78
72202;SHT30;60105;54.956;73.412;2022-09-25T01:46:32;17.12;61.63
72202;SHT30;60105;54.956;73.412;2022-09-25T01:49:04;17.12;60.76
72202;SHT30;60105;54.956;73.412;2022-09-25T01:51:42;17.19;61.04
72202;SHT30;60105;54.956;73.412;2022-09-25T01:54:16;17.24;60.70
72202;SHT30;60105;54.956;73.412;2022-09-25T01:57:19;17.32;59.97
72202;SHT30;60105;54.956;73.412;2022-09-25T02:00:07;17.34;59.60
72202;SHT30;60105;54.956;73.412;2022-09-25T02:02:42;17.34;59.57
72202;SHT30;60105;54.956;73.412;2022-09-25T02:05:19;17.28;59.53
72202;SHT30;60105;54.956;73.412;2022-09-25T02:07:54;17.28;59.58
72202;SHT30;60105;54.956;73.412;2022-09-25T02:10:30;17.21;59.14
72202;SHT30;60105;54.956;73.412;2022-09-25T02:13:06;17.04;59.39
72202;SHT30;60105;54.956;73.412;2022-09-25T02:15:45;17.00;59.67
72202;SHT30;60105;54.956;73.412;2022-09-25T02:18:16;16.94;59.86
72202;SHT30;60105;54.956;73.412;2022-09-25T02:26:35;16.81;60.87
72202;SHT30;60105;54.956;73.412;2022-09-25T02:29:03;16.80;60.74
72202;SHT30;60105;54.956;73.412;2022-09-25T02:31:54;16.81;60.98
72202;SHT30;60105;54.956;73.412;2022-09-25T02:34:22;16.79;61.22
72202;SHT30;60105;54.956;73.412;2022-09-25T02:36:48;16.74;61.67
72202;SHT30;60105;54.956;73.412;2022-09-25T02:39:20;16.77;60.89
72202;SHT30;60105;54.956;73.412;2022-09-25T02:45:15;16.80;61.55
72202;SHT30;60105;54.956;73.412;2022-09-25T02:48:08;16.71;61.16
72202;SHT30;60105;54.956;73.412;2022-09-25T02:50:58;16.74;61.65
72202;SHT30;60105;54.956;73.412;2022-09-25T02:53:49;16.60;61.48
72202;SHT30;60105;54.956;73.412;2022-09-25T02:56:53;16.55;62.02
72202;SHT30;60105;54.956;73.412;2022-09-25T02:59:38;16.39;61.99
72202;SHT30;60105;54.956;73.412;2022-09-25T03:02:12;16.32;62.26
72202;SHT30;60105;54.956;73.412;2022-09-25T03:04:41;16.25;62.21
72202;SHT30;60105;54.956;73.412;2022-09-25T03:07:09;16.18;62.44
72202;SHT30;60105;54.956;73.412;2022-09-25T03:09:37;16.15;62.57
72202;SHT30;60105;54.956;73.412;2022-09-25T03:12:06;16.12;62.58
72202;SHT30;60105;54.956;73.412;2022-09-25T03:14:33;16.09;62.42
72202;SHT30;60105;54.956;73.412;2022-09-25T03:17:01;16.06;62.57
72202;SHT30;60105;54.956;73.412;2022-09-25T03:19:30;15.92;62.09
72202;SHT30;60105;54.956;73.412;2022-09-25T03:21:56;15.91;61.86
72202;SHT30;60105;54.956;73.412;2022-09-25T03:24:22;15.74;61.87
72202;SHT30;60105;54.956;73.412;2022-09-25T03:26:49;15.64;62.18
72202;SHT30;60105;54.956;73.412;2022-09-25T03:29:16;15.67;61.48
72202;SHT30;60105;54.956;73.412;2022-09-25T03:31:48;15.72;61.15
72202;SHT30;60105;54.956;73.412;2022-09-25T03:34:16;15.72;61.60
72202;SHT30;60105;54.956;73.412;2022-09-25T03:36:45;15.72;60.23
72202;SHT30;60105;54.956;73.412;2022-09-25T03:39:14;15.71;60.26
72202;SHT30;60105;54.956;73.412;2022-09-25T03:41:40;15.70;60.33
72202;SHT30;60105;54.956;73.412;2022-09-25T03:44:08;15.68;60.31
72202;SHT30;60105;54.956;73.412;2022-09-25T03:46:34;15.78;60.21
72202;SHT30;60105;54.956;73.412;2022-09-25T03:49:01;15.92;59.81
72202;SHT30;60105;54.956;73.412;2022-09-25T03:51:32;15.84;60.00
72202;SHT30;60105;54.956;73.412;2022-09-25T03:53:58;15.82;60.06
72202;SHT30;60105;54.956;73.412;2022-09-25T03:56:26;15.78;59.99
72202;SHT30;60105;54.956;73.412;2022-09-25T03:58:55;15.80;59.94
72202;SHT30;60105;54.956;73.412;2022-09-25T04:01:22;15.92;60.23
72202;SHT30;60105;54.956;73.412;2022-09-25T04:03:49;16.02;59.82
72202;SHT30;60105;54.956;73.412;2022-09-25T04:06:18;16.22;59.04
72202;SHT30;60105;54.956;73.412;2022-09-25T04:08:46;16.19;59.04
72202;SHT30;60105;54.956;73.412;2022-09-25T04:11:16;16.42;57.62
72202;SHT30;60105;54.956;73.412;2022-09-25T04:13:43;16.52;56.74
72202;SHT30;60105;54.956;73.412;2022-09-25T04:16:10;16.52;56.43
72202;SHT30;60105;54.956;73.412;2022-09-25T04:18:37;16.56;56.94
72202;SHT30;60105;54.956;73.412;2022-09-25T04:21:06;16.63;56.16
72202;SHT30;60105;54.956;73.412;2022-09-25T04:23:35;16.77;56.10
72202;SHT30;60105;54.956;73.412;2022-09-25T04:26:01;16.83;55.11
72202;SHT30;60105;54.956;73.412;2022-09-25T04:28:29;16.88;55.19
72202;SHT30;60105;54.956;73.412;2022-09-25T04:30:59;16.97;54.80
72202;SHT30;60105;54.956;73.412;2022-09-25T04:33:30;16.91;54.64
72202;SHT30;60105;54.956;73.412;2022-09-25T04:36:13;16.87;54.84
72202;SHT30;60105;54.956;73.412;2022-09-25T04:38:39;16.92;54.47
72202;SHT30;60105;54.956;73.412;2022-09-25T04:41:06;17.06;54.52
72202;SHT30;60105;54.956;73.412;2022-09-25T04:43:33;17.10;55.40
72202;SHT30;60105;54.956;73.412;2022-09-25T04:46:00;17.17;54.79
72202;SHT30;60105;54.956;73.412;2022-09-25T04:48:28;17.32;54.70
72202;SHT30;60105;54.956;73.412;2022-09-25T04:50:57;17.46;53.83
72202;SHT30;60105;54.956;73.412;2022-09-25T04:53:29;17.63;53.18
72202;SHT30;60105;54.956;73.412;2022-09-25T04:56:03;17.65;53.21
72202;SHT30;60105;54.956;73.412;2022-09-25T04:58:30;17.77;52.58
72202;SHT30;60105;54.956;73.412;2022-09-25T05:01:06;17.87;52.42
72202;SHT30;60105;54.956;73.412;2022-09-25T05:03:34;17.91;52.09
72202;SHT30;60105;54.956;73.412;2022-09-25T05:06:10;18.00;51.94
72202;SHT30;60105;54.956;73.412;2022-09-25T05:08:42;18.03;52.05
72202;SHT30;60105;54.956;73.412;2022-09-25T05:11:08;18.06;52.10
72202;SHT30;60105;54.956;73.412;2022-09-25T05:13:36;18.03;51.97
72202;SHT30;60105;54.956;73.412;2022-09-25T05:16:06;18.13;51.59
72202;SHT30;60105;54.956;73.412;2022-09-25T05:18:33;18.34;51.19
72202;SHT30;60105;54.956;73.412;2022-09-25T05:21:08;18.44;51.01
72202;SHT30;60105;54.956;73.412;2022-09-25T05:23:34;18.35;51.38
72202;SHT30;60105;54.956;73.412;2022-09-25T05:26:01;18.33;51.06
72202;SHT30;60105;54.956;73.412;2022-09-25T05:28:31;18.23;50.99
72202;SHT30;60105;54.956;73.412;2022-09-25T05:30:59;18.21;51.02
72202;SHT30;60105;54.956;73.412;2022-09-25T05:33:29;18.23;51.54
72202;SHT30;60105;54.956;73.412;2022-09-25T05:36:03;18.26;51.28
72202;SHT30;60105;54.956;73.412;2022-09-25T05:38:34;18.38;50.55
72202;SHT30;60105;54.956;73.412;2022-09-25T05:41:01;18.41;50.62
72202;SHT30;60105;54.956;73.412;2022-09-25T05:43:30;18.33;50.89
72202;SHT30;60105;54.956;73.412;2022-09-25T05:45:57;18.37;50.53
72202;SHT30;60105;54.956;73.412;2022-09-25T05:48:24;18.43;50.89
72202;SHT30;60105;54.956;73.412;2022-09-25T05:50:55;18.54;50.62
72202;SHT30;60105;54.956;73.412;2022-09-25T05:53:22;18.52;50.49
72202;SHT30;60105;54.956;73.412;2022-09-25T05:55:53;18.55;50.22
72202;SHT30;60105;54.956;73.412;2022-09-25T05:58:19;18.37;50.60
72202;SHT30;60105;54.956;73.412;2022-09-25T06:00:47;18.35;50.95
72202;SHT30;60105;54.956;73.412;2022-09-25T06:03:13;18.27;51.37
72202;SHT30;60105;54.956;73.412;2022-09-25T06:05:40;18.27;51.08
72202;SHT30;60105;54.956;73.412;2022-09-25T06:08:06;18.27;51.16
72202;SHT30;60105;54.956;73.412;2022-09-25T06:10:33;18.23;51.16
72202;SHT30;60105;54.956;73.412;2022-09-25T06:13:05;18.30;51.07
72202;SHT30;60105;54.956;73.412;2022-09-25T06:15:38;18.49;50.77
72202;SHT30;60105;54.956;73.412;2022-09-25T06:18:07;18.71;50.23
72202;SHT30;60105;54.956;73.412;2022-09-25T06:20:34;18.89;49.46
72202;SHT30;60105;54.956;73.412;2022-09-25T06:23:01;19.06;49.52
72202;SHT30;60105;54.956;73.412;2022-09-25T06:25:29;19.19;48.80
72202;SHT30;60105;54.956;73.412;2022-09-25T06:27:58;19.24;48.21
72202;SHT30;60105;54.956;73.412;2022-09-25T06:30:27;19.31;48.41
72202;SHT30;60105;54.956;73.412;2022-09-25T06:33:06;19.24;48.19
72202;SHT30;60105;54.956;73.412;2022-09-25T06:35:36;19.37;48.38
72202;SHT30;60105;54.956;73.412;2022-09-25T06:38:05;19.50;47.80
72202;SHT30;60105;54.956;73.412;2022-09-25T06:40:31;19.53;47.89
72202;SHT30;60105;54.956;73.412;2022-09-25T06:43:02;19.60;48.10
72202;SHT30;60105;54.956;73.412;2022-09-25T06:45:30;19.53;48.02
72202;SHT30;60105;54.956;73.412;2022-09-25T06:48:06;19.61;48.17
72202;SHT30;60105;54.956;73.412;2022-09-25T06:50:46;19.63;47.49
72202;SHT30;60105;54.956;73.412;2022-09-25T06:53:15;19.54;47.61
72202;SHT30;60105;54.956;73.412;2022-09-25T06:55:41;19.37;48.29
72202;SHT30;60105;54.956;73.412;2022-09-25T06:58:13;19.37;48.93
72202;SHT30;60105;54.956;73.412;2022-09-25T07:00:46;19.33;48.63
72202;SHT30;60105;54.956;73.412;2022-09-25T07:03:13;19.20;48.78
72202;SHT30;60105;54.956;73.412;2022-09-25T07:06:02;19.14;49.08
72202;SHT30;60105;54.956;73.412;2022-09-25T07:08:29;18.99;49.95
72202;SHT30;60105;54.956;73.412;2022-09-25T07:10:57;18.92;58.15
72202;SHT30;60105;54.956;73.412;2022-09-25T07:13:26;18.99;50.98
72202;SHT30;60105;54.956;73.412;2022-09-25T07:16:06;18.77;50.76
72202;SHT30;60105;54.956;73.412;2022-09-25T07:18:34;18.72;52.36
72202;SHT30;60105;54.956;73.412;2022-09-25T07:21:14;18.69;53.13
72202;SHT30;60105;54.956;73.412;2022-09-25T07:23:41;18.61;51.06
72202;SHT30;60105;54.956;73.412;2022-09-25T07:26:10;18.47;51.41
72202;SHT30;60105;54.956;73.412;2022-09-25T07:28:38;18.47;51.17
72202;SHT30;60105;54.956;73.412;2022-09-25T07:31:14;18.49;52.48
72202;SHT30;60105;54.956;73.412;2022-09-25T07:33:41;18.43;51.96
72202;SHT30;60105;54.956;73.412;2022-09-25T07:36:07;18.28;51.45
72202;SHT30;60105;54.956;73.412;2022-09-25T07:38:34;18.04;52.43
72202;SHT30;60105;54.956;73.412;2022-09-25T07:41:05;17.96;52.65
72202;SHT30;60105;54.956;73.412;2022-09-25T07:43:32;17.98;52.88
72202;SHT30;60105;54.956;73.412;2022-09-25T07:45:59;17.90;53.07
72202;SHT30;60105;54.956;73.412;2022-09-25T07:48:26;18.03;52.72
72202;SHT30;60105;54.956;73.412;2022-09-25T07:50:59;17.94;52.66
72202;SHT30;60105;54.956;73.412;2022-09-25T07:53:25;17.91;52.33
72202;SHT30;60105;54.956;73.412;2022-09-25T07:56:01;17.94;52.52
72202;SHT30;60105;54.956;73.412;2022-09-25T07:58:28;18.11;52.71
72202;SHT30;60105;54.956;73.412;2022-09-25T08:00:58;18.17;51.82
72202;SHT30;60105;54.956;73.412;2022-09-25T08:03:25;18.17;52.38
72202;SHT30;60105;54.956;73.412;2022-09-25T08:06:02;18.40;51.21
72202;SHT30;60105;54.956;73.412;2022-09-25T08:08:29;18.58;50.84
72202;SHT30;60105;54.956;73.412;2022-09-25T08:11:06;18.54;51.30
72202;SHT30;60105;54.956;73.412;2022-09-25T08:13:34;18.59;50.61
72202;SHT30;60105;54.956;73.412;2022-09-25T08:16:04;18.37;52.05
72202;SHT30;60105;54.956;73.412;2022-09-25T08:18:31;18.17;51.85
72202;SHT30;60105;54.956;73.412;2022-09-25T08:21:01;18.04;52.25
72202;SHT30;60105;54.956;73.412;2022-09-25T08:23:29;18.06;52.29
72202;SHT30;60105;54.956;73.412;2022-09-25T08:25:55;17.98;53.22
72202;SHT30;60105;54.956;73.412;2022-09-25T08:28:22;17.86;52.65
72202;SHT30;60105;54.956;73.412;2022-09-25T08:30:49;17.70;54.80
72202;SHT30;60105;54.956;73.412;2022-09-25T08:33:22;17.65;53.15
72202;SHT30;60105;54.956;73.412;2022-09-25T08:35:56;17.59;53.03
72202;SHT30;60105;54.956;73.412;2022-09-25T08:38:32;17.40;53.40
72202;SHT30;60105;54.956;73.412;2022-09-25T08:41:03;17.38;55.05
72202;SHT30;60105;54.956;73.412;2022-09-25T08:43:33;17.31;53.71
72202;SHT30;60105;54.956;73.412;2022-09-25T08:46:04;17.19;54.86
72202;SHT30;60105;54.956;73.412;2022-09-25T08:49:04;17.14;58.14
72202;SHT30;60105;54.956;73.412;2022-09-25T08:51:44;17.12;54.79
72202;SHT30;60105;54.956;73.412;2022-09-25T08:54:23;16.97;56.87
72202;SHT30;60105;54.956;73.412;2022-09-25T08:56:59;16.87;55.75
72202;SHT30;60105;54.956;73.412;2022-09-25T08:59:36;16.70;55.90
72202;SHT30;60105;54.956;73.412;2022-09-25T09:02:21;16.61;56.09
72202;SHT30;60105;54.956;73.412;2022-09-25T09:04:53;16.50;56.75
72202;SHT30;60105;54.956;73.412;2022-09-25T09:10:20;16.42;57.45
72202;SHT30;60105;54.956;73.412;2022-09-25T09:12:51;16.36;57.75
72202;SHT30;60105;54.956;73.412;2022-09-25T09:17:48;16.38;58.22
72202;SHT30;60105;54.956;73.412;2022-09-25T09:20:18;16.45;58.00
72202;SHT30;60105;54.956;73.412;2022-09-25T09:22:50;16.29;58.26
72202;SHT30;60105;54.956;73.412;2022-09-25T09:25:27;16.16;58.78
72202;SHT30;60105;54.956;73.412;2022-09-25T09:39:35;15.94;59.00
72202;SHT30;60105;54.956;73.412;2022-09-25T09:52:44;15.32;61.22
72202;SHT30;60105;54.956;73.412;2022-09-25T09:57:51;15.22;61.98
72202;SHT30;60105;54.956;73.412;2022-09-25T10:00:20;15.13;62.44
72202;SHT30;60105;54.956;73.412;2022-09-25T10:02:58;15.23;62.62
72202;SHT30;60105;54.956;73.412;2022-09-25T10:05:45;15.16;63.12
72202;SHT30;60105;54.956;73.412;2022-09-25T10:08:12;15.16;63.16
72202;SHT30;60105;54.956;73.412;2022-09-25T10:10:41;15.13;63.30
72202;SHT30;60105;54.956;73.412;2022-09-25T10:13:18;15.09;63.49
72202;SHT30;60105;54.956;73.412;2022-09-25T10:15:49;14.92;63.86
72202;SHT30;60105;54.956;73.412;2022-09-25T10:18:19;14.72;64.53
72202;SHT30;60105;54.956;73.412;2022-09-25T10:20:56;14.65;64.74
72202;SHT30;60105;54.956;73.412;2022-09-25T10:23:32;14.55;65.36
72202;SHT30;60105;54.956;73.412;2022-09-25T10:26:00;14.67;65.10
72202;SHT30;60105;54.956;73.412;2022-09-25T10:28:32;14.67;65.16
72202;SHT30;60105;54.956;73.412;2022-09-25T10:31:04;14.54;65.58
72202;SHT30;60105;54.956;73.412;2022-09-25T10:33:38;14.42;65.93
72202;SHT30;60105;54.956;73.412;2022-09-25T10:36:04;14.44;65.89
72202;SHT30;60105;54.956;73.412;2022-09-25T10:38:45;14.33;66.21
72202;SHT30;60105;54.956;73.412;2022-09-25T10:41:17;14.24;66.13
72202;SHT30;60105;54.956;73.412;2022-09-25T10:43:58;14.13;66.29
72202;SHT30;60105;54.956;73.412;2022-09-25T10:46:33;13.99;66.82
72202;SHT30;60105;54.956;73.412;2022-09-25T10:49:26;13.99;66.94
72202;SHT30;60105;54.956;73.412;2022-09-25T10:52:16;14.00;66.88
72202;SHT30;60105;54.956;73.412;2022-09-25T10:54:46;14.04;66.86
72202;SHT30;60105;54.956;73.412;2022-09-25T10:57:29;14.12;66.27
72202;SHT30;60105;54.956;73.412;2022-09-25T11:00:00;13.97;66.69
72202;SHT30;60105;54.956;73.412;2022-09-25T11:02:38;13.83;67.31
72202;SHT30;60105;54.956;73.412;2022-09-25T11:05:19;13.89;67.22
72202;SHT30;60105;54.956;73.412;2022-09-25T11:07:49;13.96;67.22
72202;SHT30;60105;54.956;73.412;2022-09-25T11:10:22;13.95;67.10
72202;SHT30;60105;54.956;73.412;2022-09-25T11:12:50;13.96;67.20
72202;SHT30;60105;54.956;73.412;2022-09-25T11:15:23;13.97;67.25
72202;SHT30;60105;54.956;73.412;2022-09-25T11:17:53;14.02;67.08
72202;SHT30;60105;54.956;73.412;2022-09-25T11:23:23;14.06;67.25
72202;SHT30;60105;54.956;73.412;2022-09-25T11:25:58;14.02;66.95
72202;SHT30;60105;54.956;73.412;2022-09-25T11:28:41;13.91;67.19
72202;SHT30;60105;54.956;73.412;2022-09-25T11:33:58;13.85;67.42
72202;SHT30;60105;54.956;73.412;2022-09-25T11:36:44;13.79;67.16
72202;SHT30;60105;54.956;73.412;2022-09-25T11:39:20;13.67;67.69
72202;SHT30;60105;54.956;73.412;2022-09-25T11:42:18;13.61;67.76
72202;SHT30;60105;54.956;73.412;2022-09-25T11:45:25;13.46;67.82
72202;SHT30;60105;54.956;73.412;2022-09-25T11:53:59;13.12;67.30
72202;SHT30;60105;54.956;73.412;2022-09-25T11:59:45;12.91;67.52
72202;SHT30;60105;54.956;73.412;2022-09-25T12:02:30;12.80;67.76
72202;SHT30;60105;54.956;73.412;2022-09-25T12:08:16;12.38;68.40
72202;SHT30;60105;54.956;73.412;2022-09-25T12:10:52;12.26;68.58
72202;SHT30;60105;54.956;73.412;2022-09-25T12:14:02;12.14;69.02
72202;SHT30;60105;54.956;73.412;2022-09-25T12:25:31;11.87;70.08
72202;SHT30;60105;54.956;73.412;2022-09-25T12:28:05;11.82;70.39
72202;SHT30;60105;54.956;73.412;2022-09-25T12:30:59;11.84;70.58
72202;SHT30;60105;54.956;73.412;2022-09-25T12:33:34;11.85;70.15
72202;SHT30;60105;54.956;73.412;2022-09-25T12:36:59;11.68;70.64
72202;SHT30;60105;54.956;73.412;2022-09-25T12:39:36;11.60;70.97
72202;SHT30;60105;54.956;73.412;2022-09-25T12:42:18;11.56;71.11
72202;SHT30;60105;54.956;73.412;2022-09-25T12:44:59;11.57;70.80
72202;SHT30;60105;54.956;73.412;2022-09-25T12:50:07;11.30;71.96
72202;SHT30;60105;54.956;73.412;2022-09-25T12:52:39;11.27;71.93
72202;SHT30;60105;54.956;73.412;2022-09-25T12:57:46;11.18;72.14
72202;SHT30;60105;54.956;73.412;2022-09-25T13:00:26;11.12;72.48
72202;SHT30;60105;54.956;73.412;2022-09-25T13:05:42;10.92;73.06
72202;SHT30;60105;54.956;73.412;2022-09-25T13:11:09;10.96;73.13
72202;SHT30;60105;54.956;73.412;2022-09-25T13:13:41;10.91;73.28
72202;SHT30;60105;54.956;73.412;2022-09-25T13:16:10;10.86;73.50
72202;SHT30;60105;54.956;73.412;2022-09-25T13:18:47;10.92;73.32
72202;SHT30;60105;54.956;73.412;2022-09-25T13:21:35;10.85;73.50
72202;SHT30;60105;54.956;73.412;2022-09-25T13:24:04;10.89;73.54
72202;SHT30;60105;54.956;73.412;2022-09-25T13:26:45;10.79;73.78
72202;SHT30;60105;54.956;73.412;2022-09-25T13:31:50;10.79;73.85
72202;SHT30;60105;54.956;73.412;2022-09-25T13:34:20;10.73;74.00
72202;SHT30;60105;54.956;73.412;2022-09-25T13:36:55;10.73;73.69
72202;SHT30;60105;54.956;73.412;2022-09-25T13:39:35;10.71;73.67
72202;SHT30;60105;54.956;73.412;2022-09-25T13:42:30;10.55;74.10
72202;SHT30;60105;54.956;73.412;2022-09-25T13:45:02;10.48;74.25
72202;SHT30;60105;54.956;73.412;2022-09-25T13:50:22;10.34;74.79
72202;SHT30;60105;54.956;73.412;2022-09-25T13:58:25;10.10;75.51
72202;SHT30;60105;54.956;73.412;2022-09-25T14:00:57;10.04;75.68
72202;SHT30;60105;54.956;73.412;2022-09-25T14:03:50;9.99;75.70
72202;SHT30;60105;54.956;73.412;2022-09-25T14:06:29;10.04;75.64
72202;SHT30;60105;54.956;73.412;2022-09-25T14:09:06;10.07;75.22
72202;SHT30;60105;54.956;73.412;2022-09-25T14:11:34;10.03;75.37
72202;SHT30;60105;54.956;73.412;2022-09-25T14:14:35;10.04;75.35
72202;SHT30;60105;54.956;73.412;2022-09-25T14:17:04;10.14;75.19
72202;SHT30;60105;54.956;73.412;2022-09-25T14:19:34;10.13;75.17
72202;SHT30;60105;54.956;73.412;2022-09-25T14:22:04;10.17;74.81
72202;SHT30;60105;54.956;73.412;2022-09-25T14:24:41;10.27;74.43
72202;SHT30;60105;54.956;73.412;2022-09-25T14:27:24;10.20;74.33
72202;SHT30;60105;54.956;73.412;2022-09-25T14:30:05;10.09;74.60
72202;SHT30;60105;54.956;73.412;2022-09-25T14:40:29;9.97;74.79
72202;SHT30;60105;54.956;73.412;2022-09-25T14:48:46;9.76;75.92
72202;SHT30;60105;54.956;73.412;2022-09-25T14:51:37;9.66;76.67
72202;SHT30;60105;54.956;73.412;2022-09-25T14:54:24;9.63;77.02
72202;SHT30;60105;54.956;73.412;2022-09-25T14:56:58;9.46;77.89
72202;SHT30;60105;54.956;73.412;2022-09-25T14:59:32;9.38;78.69
72202;SHT30;60105;54.956;73.412;2022-09-25T15:02:31;9.25;78.50
72202;SHT30;60105;54.956;73.412;2022-09-25T15:05:31;9.13;79.03
72202;SHT30;60105;54.956;73.412;2022-09-25T15:08:00;9.18;78.87
72202;SHT30;60105;54.956;73.412;2022-09-25T15:13:17;8.96;79.20
72202;SHT30;60105;54.956;73.412;2022-09-25T15:15:46;8.86;79.70
72202;SHT30;60105;54.956;73.412;2022-09-25T15:18:32;8.94;79.86
72202;SHT30;60105;54.956;73.412;2022-09-25T15:21:02;8.94;80.18
72202;SHT30;60105;54.956;73.412;2022-09-25T15:23:31;8.99;79.67
72202;SHT30;60105;54.956;73.412;2022-09-25T15:26:13;8.91;79.73
72202;SHT30;60105;54.956;73.412;2022-09-25T15:28:41;8.90;80.56
72202;SHT30;60105;54.956;73.412;2022-09-25T15:31:07;8.83;80.67
72202;SHT30;60105;54.956;73.412;2022-09-25T15:33:36;8.73;81.88
72202;SHT30;60105;54.956;73.412;2022-09-25T15:36:14;8.67;81.20
72202;SHT30;60105;54.956;73.412;2022-09-25T15:38:57;8.62;80.99
72202;SHT30;60105;54.956;73.412;2022-09-25T15:41:28;8.65;81.30
72202;SHT30;60105;54.956;73.412;2022-09-25T15:44:20;8.62;81.00
72202;SHT30;60105;54.956;73.412;2022-09-25T15:46:56;8.66;81.21
72202;SHT30;60105;54.956;73.412;2022-09-25T15:52:12;8.60;80.97
72202;SHT30;60105;54.956;73.412;2022-09-25T15:54:43;8.53;81.83
72202;SHT30;60105;54.956;73.412;2022-09-25T15:57:15;8.57;81.26
72202;SHT30;60105;54.956;73.412;2022-09-25T15:59:47;8.60;81.52
72202;SHT30;60105;54.956;73.412;2022-09-25T16:02:35;8.66;81.50
72202;SHT30;60105;54.956;73.412;2022-09-25T16:05:31;8.59;81.12
72202;SHT30;60105;54.956;73.412;2022-09-25T16:11:23;8.57;81.26
72202;SHT30;60105;54.956;73.412;2022-09-25T16:14:35;8.63;80.13
72202;SHT30;60105;54.956;73.412;2022-09-25T16:17:02;8.62;80.35
72202;SHT30;60105;54.956;73.412;2022-09-25T16:19:31;8.67;80.07
72202;SHT30;60105;54.956;73.412;2022-09-25T16:22:11;8.66;80.41
72202;SHT30;60105;54.956;73.412;2022-09-25T16:24:38;8.59;79.84
72202;SHT30;60105;54.956;73.412;2022-09-25T16:27:20;8.56;79.96
72202;SHT30;60105;54.956;73.412;2022-09-25T16:29:54;8.69;80.19
72202;SHT30;60105;54.956;73.412;2022-09-25T16:32:21;8.72;80.25
72202;SHT30;60105;54.956;73.412;2022-09-25T16:35:18;8.77;79.27
72202;SHT30;60105;54.956;73.412;2022-09-25T16:37:51;8.80;79.09
72202;SHT30;60105;54.956;73.412;2022-09-25T16:42:51;8.83;79.87
72202;SHT30;60105;54.956;73.412;2022-09-25T16:45:30;8.81;79.58
72202;SHT30;60105;54.956;73.412;2022-09-25T16:48:29;8.84;78.61
72202;SHT30;60105;54.956;73.412;2022-09-25T16:50:57;8.81;78.08
72202;SHT30;60105;54.956;73.412;2022-09-25T16:53:36;8.91;78.47
72202;SHT30;60105;54.956;73.412;2022-09-25T16:56:05;8.87;78.58
72202;SHT30;60105;54.956;73.412;2022-09-25T16:58:31;8.75;79.27
72202;SHT30;60105;54.956;73.412;2022-09-25T17:01:07;8.73;78.77
72202;SHT30;60105;54.956;73.412;2022-09-25T17:03:44;8.69;80.12
72202;SHT30;60105;54.956;73.412;2022-09-25T17:06:22;8.70;81.00
72202;SHT30;60105;54.956;73.412;2022-09-25T17:08:49;8.76;80.68
72202;SHT30;60105;54.956;73.412;2022-09-25T17:11:26;8.76;80.85
72202;SHT30;60105;54.956;73.412;2022-09-25T17:13:52;8.72;80.81
72202;SHT30;60105;54.956;73.412;2022-09-25T17:16:19;8.69;80.97
72202;SHT30;60105;54.956;73.412;2022-09-25T17:18:45;8.62;80.84
72202;SHT30;60105;54.956;73.412;2022-09-25T17:21:27;8.57;81.40
72202;SHT30;60105;54.956;73.412;2022-09-25T17:23:54;8.62;80.93
72202;SHT30;60105;54.956;73.412;2022-09-25T17:26:22;8.42;81.73
72202;SHT30;60105;54.956;73.412;2022-09-25T17:28:49;8.48;81.82
72202;SHT30;60105;54.956;73.412;2022-09-25T17:31:18;8.44;81.77
72202;SHT30;60105;54.956;73.412;2022-09-25T17:33:48;8.44;81.84
72202;SHT30;60105;54.956;73.412;2022-09-25T17:36:18;8.38;82.60
72202;SHT30;60105;54.956;73.412;2022-09-25T17:38:44;8.39;82.29
72202;SHT30;60105;54.956;73.412;2022-09-25T17:41:29;8.44;81.91
72202;SHT30;60105;54.956;73.412;2022-09-25T17:43:57;8.48;82.77
72202;SHT30;60105;54.956;73.412;2022-09-25T17:46:24;8.45;82.43
72202;SHT30;60105;54.956;73.412;2022-09-25T17:48:51;8.44;83.10
72202;SHT30;60105;54.956;73.412;2022-09-25T17:51:28;8.26;82.23
72202;SHT30;60105;54.956;73.412;2022-09-25T17:53:56;8.26;84.01
72202;SHT30;60105;54.956;73.412;2022-09-25T17:56:32;8.20;83.35
72202;SHT30;60105;54.956;73.412;2022-09-25T17:59:00;8.18;83.18
72202;SHT30;60105;54.956;73.412;2022-09-25T18:01:29;8.22;83.10
72202;SHT30;60105;54.956;73.412;2022-09-25T18:03:58;8.21;83.33
72202;SHT30;60105;54.956;73.412;2022-09-25T18:06:26;8.25;82.84
72202;SHT30;60105;54.956;73.412;2022-09-25T18:08:57;8.12;83.35
72202;SHT30;60105;54.956;73.412;2022-09-25T18:11:33;8.11;82.98